Metar z połowy godziny Komunikat METAR ze strony awiacja.imgw.pl Metar G30 EPRA METAR EPRA 200930Z 24004KT 9999 FEW030 BKN100 BKN200 27/19 Q1012 RMK 265 062 6/1=